createdAt,value
2023-03-01T00:00:39.666Z,102
2023-03-01T00:01:46.703Z,103
2023-03-01T00:02:53.821Z,107
2023-03-01T00:04:00.991Z,103
2023-03-01T00:05:08.134Z,108
2023-03-01T00:06:15.107Z,109
2023-03-01T00:07:22.052Z,115
2023-03-01T00:08:28.852Z,118
2023-03-01T00:09:35.822Z,115
2023-03-01T00:10:42.910Z,127
2023-03-01T00:11:49.875Z,124
2023-03-01T00:12:56.887Z,120
2023-03-01T00:14:03.944Z,120
2023-03-01T00:15:14.287Z,110
2023-03-01T00:16:22.719Z,114
2023-03-01T00:17:32.417Z,111
2023-03-01T00:18:39.387Z,119
2023-03-01T00:19:46.521Z,115
2023-03-01T00:20:53.493Z,111
2023-03-01T00:22:00.510Z,110
2023-03-01T00:23:10.859Z,108
2023-03-01T00:24:18.094Z,108
2023-03-01T00:25:25.076Z,105
2023-03-01T00:26:32.352Z,113
2023-03-01T00:27:38.992Z,117
2023-03-01T00:28:46.541Z,112
2023-03-01T00:29:53.612Z,112
2023-03-01T00:31:00.550Z,118
2023-03-01T00:32:07.571Z,119
2023-03-01T00:33:14.871Z,118
2023-03-01T00:34:23.558Z,122
2023-03-01T00:35:30.952Z,113
2023-03-01T00:36:38.069Z,114
2023-03-01T00:37:45.097Z,110
2023-03-01T00:38:52.011Z,114
2023-03-01T00:39:58.928Z,109
2023-03-01T00:41:08.011Z,108
2023-03-01T00:42:18.089Z,108
2023-03-01T00:43:28.052Z,109
2023-03-01T00:44:35.024Z,105
2023-03-01T00:45:42.519Z,104
2023-03-01T00:46:49.421Z,104
2023-03-01T00:47:56.392Z,101
2023-03-01T00:49:03.384Z,100
2023-03-01T00:50:10.216Z,102
2023-03-01T00:51:17.251Z,104
2023-03-01T00:52:24.117Z,102
2023-03-01T00:53:31.570Z,98
2023-03-01T00:54:45.365Z,101
2023-03-01T00:55:52.985Z,97
2023-03-01T00:56:59.932Z,97
2023-03-01T00:58:09.433Z,100
2023-03-01T00:59:16.361Z,95
2023-03-01T01:00:23.357Z,98
2023-03-01T01:01:30.283Z,98
2023-03-01T01:02:37.352Z,97
2023-03-01T01:03:44.265Z,98
2023-03-01T01:04:53.867Z,95
2023-03-01T01:06:00.764Z,92
2023-03-01T01:07:08.529Z,92
2023-03-01T01:08:15.564Z,93
2023-03-01T01:09:22.699Z,93
2023-03-01T01:10:29.622Z,89
2023-03-01T01:11:36.599Z,89
2023-03-01T01:12:43.771Z,88
2023-03-01T01:13:50.730Z,88
2023-03-01T01:14:57.840Z,90
2023-03-01T01:16:04.796Z,89
2023-03-01T01:17:11.783Z,94
2023-03-01T01:18:19.654Z,92
2023-03-01T01:19:26.775Z,86
2023-03-01T01:20:33.739Z,90
2023-03-01T01:21:41.313Z,90
2023-03-01T01:22:49.110Z,92
2023-03-01T01:23:56.098Z,88
2023-03-01T01:25:07.608Z,90
2023-03-01T01:26:17.185Z,89
2023-03-01T01:27:24.134Z,91
2023-03-01T01:28:31.072Z,92
2023-03-01T01:29:38.031Z,93
2023-03-01T01:30:44.991Z,95
2023-03-01T01:31:53.608Z,94
2023-03-01T01:33:01.122Z,97
2023-03-01T01:34:08.065Z,101
2023-03-01T01:35:21.123Z,93
2023-03-01T01:36:28.566Z,94
2023-03-01T01:37:35.099Z,94
2023-03-01T01:38:43.998Z,95
2023-03-01T01:39:54.674Z,93
2023-03-01T01:41:08.663Z,95
2023-03-01T01:42:16.613Z,96
2023-03-01T01:43:21.176Z,96
2023-03-01T01:44:31.050Z,93
2023-03-01T01:45:38.085Z,99
2023-03-01T01:46:45.132Z,97
2023-03-01T01:47:57.938Z,95
2023-03-01T01:49:05.073Z,97
2023-03-01T01:50:12.117Z,100
2023-03-01T01:51:19.049Z,94
2023-03-01T01:52:28.916Z,97
2023-03-01T01:53:36.125Z,94
2023-03-01T01:54:43.080Z,99
2023-03-01T01:55:56.464Z,96
2023-03-01T01:57:04.357Z,97
2023-03-01T01:58:11.340Z,95
2023-03-01T01:59:18.165Z,102
2023-03-01T02:00:25.818Z,96
2023-03-01T02:01:32.958Z,98
2023-03-01T02:02:42.384Z,99
2023-03-01T02:03:49.968Z,98
2023-03-01T02:04:56.864Z,98
2023-03-01T02:06:13.934Z,97
2023-03-01T02:07:26.672Z,96
2023-03-01T02:08:36.218Z,98
2023-03-01T02:09:43.160Z,95
2023-03-01T02:10:52.829Z,98
2023-03-01T02:12:00.363Z,98
2023-03-01T02:13:07.384Z,97
2023-03-01T02:14:14.356Z,99
2023-03-01T02:15:26.042Z,92
2023-03-01T02:16:33.507Z,98
2023-03-01T02:17:39.920Z,93
2023-03-01T02:18:46.840Z,99
2023-03-01T02:19:53.948Z,100
2023-03-01T02:21:15.625Z,95
2023-03-01T02:22:30.467Z,97
2023-03-01T02:23:37.406Z,100
2023-03-01T02:24:44.418Z,97
2023-03-01T02:25:57.433Z,96
2023-03-01T02:27:11.929Z,100
2023-03-01T02:28:18.891Z,100
2023-03-01T02:29:30.918Z,99
2023-03-01T02:30:37.862Z,98
2023-03-01T02:31:47.738Z,103
2023-03-01T02:32:54.596Z,101
2023-03-01T02:34:04.483Z,98
2023-03-01T02:35:16.913Z,98
2023-03-01T02:36:23.845Z,101
2023-03-01T02:37:30.957Z,100
2023-03-01T02:38:40.751Z,99
2023-03-01T02:39:47.828Z,100
2023-03-01T02:40:55.017Z,97
2023-03-01T02:42:04.982Z,100
2023-03-01T02:43:11.918Z,96
2023-03-01T02:44:19.062Z,103
2023-03-01T02:45:26.196Z,101
2023-03-01T02:46:33.505Z,95
2023-03-01T02:47:40.015Z,98
2023-03-01T02:48:46.987Z,100
2023-03-01T02:49:54.241Z,100
2023-03-01T02:51:01.210Z,95
2023-03-01T02:52:13.243Z,96
2023-03-01T02:53:30.316Z,94
2023-03-01T02:54:42.967Z,94
2023-03-01T02:55:54.925Z,97
2023-03-01T02:57:01.818Z,94
2023-03-01T02:58:08.701Z,97
2023-03-01T02:59:15.695Z,97
2023-03-01T03:00:22.738Z,94
2023-03-01T03:01:37.183Z,93
2023-03-01T03:02:44.325Z,94
2023-03-01T03:03:51.345Z,93
2023-03-01T03:04:58.277Z,90
2023-03-01T03:06:13.344Z,90
2023-03-01T03:07:22.919Z,96
2023-03-01T03:08:30.811Z,95
2023-03-01T03:09:37.656Z,94
2023-03-01T03:10:44.698Z,95
2023-03-01T03:11:51.720Z,92
2023-03-01T03:12:58.681Z,94
2023-03-01T03:14:08.675Z,97
2023-03-01T03:15:15.611Z,97
2023-03-01T03:16:22.755Z,92
2023-03-01T03:17:29.574Z,97
2023-03-01T03:18:36.396Z,94
2023-03-01T03:19:43.322Z,92
2023-03-01T03:20:50.378Z,96
2023-03-01T03:21:57.352Z,94
2023-03-01T03:23:04.322Z,97
2023-03-01T03:24:11.304Z,98
2023-03-01T03:25:18.857Z,91
2023-03-01T03:26:25.705Z,94
2023-03-01T03:27:32.633Z,95
2023-03-01T03:28:39.626Z,95
2023-03-01T03:29:46.562Z,89
2023-03-01T03:30:53.484Z,99
2023-03-01T03:32:02.992Z,100
2023-03-01T03:33:12.733Z,98
2023-03-01T03:34:16.796Z,91
2023-03-01T03:35:23.804Z,96
2023-03-01T03:36:33.732Z,91
2023-03-01T03:37:40.700Z,93
2023-03-01T03:38:52.847Z,92
2023-03-01T03:39:59.982Z,96
2023-03-01T03:41:07.097Z,92
2023-03-01T03:42:17.882Z,92
2023-03-01T03:43:24.866Z,97
2023-03-01T03:44:34.066Z,93
2023-03-01T03:45:41.089Z,94
2023-03-01T03:46:47.976Z,95
2023-03-01T03:47:55.100Z,102
2023-03-01T03:49:02.173Z,102
2023-03-01T03:50:08.987Z,97
2023-03-01T03:51:19.372Z,99
2023-03-01T03:52:26.324Z,102
2023-03-01T03:53:33.256Z,106
2023-03-01T03:54:40.200Z,103
2023-03-01T03:55:47.249Z,102
2023-03-01T03:56:54.151Z,101
2023-03-01T03:58:01.170Z,102
2023-03-01T03:59:08.013Z,102
2023-03-01T04:00:15.341Z,101
2023-03-01T04:01:25.973Z,99
2023-03-01T04:02:33.176Z,97
2023-03-01T04:03:40.034Z,97
2023-03-01T04:05:05.405Z,99
2023-03-01T04:06:12.465Z,102
2023-03-01T04:07:19.527Z,97
2023-03-01T04:08:26.525Z,101
2023-03-01T04:09:33.425Z,99
2023-03-01T04:10:43.969Z,100
2023-03-01T04:11:50.931Z,97
2023-03-01T04:12:57.978Z,103
2023-03-01T04:14:08.550Z,95
2023-03-01T04:15:16.243Z,100
2023-03-01T04:16:23.209Z,101
2023-03-01T04:17:30.304Z,102
2023-03-01T04:18:37.898Z,100
2023-03-01T04:19:45.041Z,96
2023-03-01T04:20:55.018Z,101
2023-03-01T04:22:01.985Z,100
2023-03-01T04:23:08.951Z,94
2023-03-01T04:24:18.748Z,93
2023-03-01T04:25:25.712Z,97
2023-03-01T04:26:33.001Z,91
2023-03-01T04:27:39.694Z,90
2023-03-01T04:28:46.612Z,95
2023-03-01T04:29:53.462Z,90
2023-03-01T04:31:00.585Z,88
2023-03-01T04:32:07.684Z,89
2023-03-01T04:33:14.925Z,90
2023-03-01T04:34:21.917Z,89
2023-03-01T04:35:29.191Z,87
2023-03-01T04:36:36.356Z,89
2023-03-01T04:37:46.273Z,87
2023-03-01T04:38:53.330Z,87
2023-03-01T04:40:00.189Z,84
2023-03-01T04:41:07.300Z,88
2023-03-01T04:42:17.589Z,86
2023-03-01T04:43:24.657Z,88
2023-03-01T04:44:31.610Z,85
2023-03-01T04:45:38.576Z,87
2023-03-01T04:46:45.655Z,86
2023-03-01T04:47:52.545Z,89
2023-03-01T04:48:59.453Z,86
2023-03-01T04:50:06.701Z,90
2023-03-01T04:51:16.838Z,90
2023-03-01T04:52:23.701Z,89
2023-03-01T04:53:30.688Z,91
2023-03-01T04:54:37.881Z,87
2023-03-01T04:55:44.853Z,89
2023-03-01T04:56:51.763Z,85
2023-03-01T04:58:02.547Z,86
2023-03-01T04:59:09.629Z,86
2023-03-01T05:00:19.234Z,83
2023-03-01T05:01:26.998Z,91
2023-03-01T05:02:34.028Z,87
2023-03-01T05:03:43.230Z,90
2023-03-01T05:04:47.766Z,85
2023-03-01T05:05:54.601Z,86
2023-03-01T05:07:01.529Z,88
2023-03-01T05:08:08.406Z,90
2023-03-01T05:09:15.422Z,90
2023-03-01T05:10:22.262Z,82
2023-03-01T05:11:29.189Z,89
2023-03-01T05:12:39.152Z,90
2023-03-01T05:13:46.058Z,89
2023-03-01T05:14:53.105Z,91
2023-03-01T05:16:00.207Z,87
2023-03-01T05:17:07.421Z,87
2023-03-01T05:18:14.368Z,89
2023-03-01T05:19:21.268Z,89
2023-03-01T05:20:28.241Z,89
2023-03-01T05:21:35.201Z,90
2023-03-01T05:22:42.326Z,88
2023-03-01T05:23:49.610Z,91
2023-03-01T05:24:56.549Z,88
2023-03-01T05:26:03.505Z,87
2023-03-01T05:27:10.381Z,89
2023-03-01T05:28:17.318Z,89
2023-03-01T05:29:24.313Z,89
2023-03-01T05:30:31.210Z,89
2023-03-01T05:31:38.121Z,90
2023-03-01T05:32:45.027Z,90
2023-03-01T05:33:56.800Z,89
2023-03-01T05:35:05.424Z,85
2023-03-01T05:36:12.479Z,91
2023-03-01T05:37:19.506Z,92
2023-03-01T05:38:26.399Z,95
2023-03-01T05:39:33.273Z,88
2023-03-01T05:40:40.133Z,89
2023-03-01T05:41:47.025Z,89
2023-03-01T05:42:57.744Z,89
2023-03-01T05:44:04.675Z,91
2023-03-01T05:45:11.725Z,89
2023-03-01T05:46:18.766Z,91
2023-03-01T05:47:25.668Z,89
2023-03-01T05:48:32.531Z,88
2023-03-01T05:49:39.923Z,88
2023-03-01T05:50:46.502Z,89
2023-03-01T05:51:53.392Z,90
2023-03-01T05:53:00.411Z,88
2023-03-01T05:54:15.702Z,93
2023-03-01T05:55:22.651Z,88
2023-03-01T05:56:30.190Z,91
2023-03-01T05:57:40.045Z,90
2023-03-01T05:58:47.200Z,88
2023-03-01T05:59:54.340Z,90
2023-03-01T06:01:01.320Z,88
2023-03-01T06:02:08.289Z,93
2023-03-01T06:03:15.264Z,90
2023-03-01T06:04:22.315Z,93
2023-03-01T06:05:29.209Z,96
2023-03-01T06:06:36.014Z,99
2023-03-01T06:07:42.876Z,98
2023-03-01T06:08:49.905Z,104
2023-03-01T06:09:56.855Z,103
2023-03-01T06:11:03.659Z,104
2023-03-01T06:12:12.002Z,105
2023-03-01T06:13:17.537Z,105
2023-03-01T06:14:24.718Z,103
2023-03-01T06:15:32.350Z,103
2023-03-01T06:16:39.305Z,102
2023-03-01T06:17:46.400Z,121
2023-03-01T06:18:54.241Z,128
2023-03-01T06:20:04.152Z,120
2023-03-01T06:21:14.738Z,121
2023-03-01T06:22:24.251Z,127
2023-03-01T06:23:31.714Z,123
2023-03-01T06:24:39.178Z,128
2023-03-01T06:25:48.862Z,125
2023-03-01T06:26:56.534Z,122
2023-03-01T06:28:03.872Z,123
2023-03-01T06:29:13.837Z,120
2023-03-01T06:30:21.422Z,120
2023-03-01T06:31:28.997Z,116
2023-03-01T06:32:36.447Z,116
2023-03-01T06:33:46.371Z,110
2023-03-01T06:34:56.198Z,115
2023-03-01T06:36:03.327Z,112
2023-03-01T06:37:10.520Z,112
2023-03-01T06:38:27.912Z,112
2023-03-01T06:39:38.918Z,112
2023-03-01T06:40:46.239Z,111
2023-03-01T06:42:00.011Z,108
2023-03-01T06:43:10.170Z,114
2023-03-01T06:44:20.211Z,112
2023-03-01T06:45:29.795Z,107
2023-03-01T06:46:46.422Z,114
2023-03-01T06:47:54.784Z,117
2023-03-01T06:49:08.166Z,119
2023-03-01T06:50:18.741Z,118
2023-03-01T06:51:26.547Z,132
2023-03-01T06:52:37.631Z,129
2023-03-01T06:53:45.858Z,132
2023-03-01T06:54:53.630Z,131
2023-03-01T06:56:00.871Z,139
2023-03-01T06:57:08.068Z,139
2023-03-01T06:58:15.262Z,140
2023-03-01T06:59:22.395Z,145
2023-03-01T07:00:38.491Z,147
2023-03-01T07:01:45.507Z,145
2023-03-01T07:02:52.623Z,147
2023-03-01T07:03:59.616Z,155
2023-03-01T07:05:07.240Z,143
2023-03-01T07:06:23.901Z,138
2023-03-01T07:07:31.438Z,134
2023-03-01T07:08:38.602Z,137
2023-03-01T07:09:46.280Z,142
2023-03-01T07:10:53.757Z,124
2023-03-01T07:12:03.700Z,126
2023-03-01T07:13:11.793Z,125
2023-03-01T07:14:18.780Z,111
2023-03-01T07:15:26.025Z,105
2023-03-01T07:16:33.576Z,97
2023-03-01T07:17:44.676Z,63
2023-03-01T07:19:01.916Z,59
2023-03-01T07:20:09.189Z,58
2023-03-01T07:21:30.133Z,67
2023-03-01T07:22:37.163Z,65
2023-03-01T07:23:44.283Z,62
2023-03-01T07:24:53.293Z,60
2023-03-01T07:26:00.911Z,63
2023-03-01T07:27:08.097Z,65
2023-03-01T07:28:17.889Z,65
2023-03-01T07:29:25.119Z,66
2023-03-01T07:30:34.174Z,59
2023-03-01T07:31:52.008Z,66
2023-03-01T07:33:02.475Z,69
2023-03-01T07:34:13.240Z,74
2023-03-01T07:35:20.238Z,77
2023-03-01T07:36:27.460Z,70
2023-03-01T07:37:45.541Z,72
2023-03-01T07:38:52.738Z,73
2023-03-01T07:40:00.062Z,67
2023-03-01T07:41:09.512Z,65
2023-03-01T07:42:18.132Z,69
2023-03-01T07:43:26.661Z,68
2023-03-01T07:44:35.445Z,68
2023-03-01T07:45:49.250Z,67
2023-03-01T07:46:56.454Z,67
2023-03-01T07:48:03.771Z,64
2023-03-01T07:49:25.232Z,65
2023-03-01T07:50:32.823Z,68
2023-03-01T07:51:49.259Z,68
2023-03-01T07:52:57.127Z,67
2023-03-01T07:54:06.949Z,70
2023-03-01T07:55:14.345Z,68
2023-03-01T07:56:25.767Z,69
2023-03-01T07:57:42.503Z,70
2023-03-01T07:58:59.302Z,68
2023-03-01T08:00:10.143Z,68
2023-03-01T08:01:17.491Z,66
2023-03-01T08:02:25.757Z,68
2023-03-01T08:03:37.437Z,66
2023-03-01T08:04:44.500Z,65
2023-03-01T08:05:56.938Z,63
2023-03-01T08:07:04.059Z,66
2023-03-01T08:08:14.266Z,64
2023-03-01T08:09:24.862Z,56
2023-03-01T08:10:31.706Z,60
2023-03-01T08:11:39.476Z,59
2023-03-01T08:12:49.129Z,58
2023-03-01T08:13:58.663Z,56
2023-03-01T08:15:08.295Z,50
2023-03-01T08:16:15.309Z,51
2023-03-01T08:17:22.857Z,52
2023-03-01T08:18:30.262Z,55
2023-03-01T08:19:40.052Z,53
2023-03-01T08:20:47.085Z,51
2023-03-01T08:21:54.852Z,49
2023-03-01T08:23:04.500Z,48
2023-03-01T08:24:11.499Z,47
2023-03-01T08:25:18.817Z,43
2023-03-01T08:26:26.121Z,47
2023-03-01T08:27:37.952Z,46
2023-03-01T08:28:46.123Z,47
2023-03-01T08:29:55.939Z,48
2023-03-01T08:31:05.496Z,44
2023-03-01T08:32:23.149Z,46
2023-03-01T08:33:34.734Z,48
2023-03-01T08:34:42.542Z,47
2023-03-01T08:35:52.839Z,47
2023-03-01T08:37:08.257Z,48
2023-03-01T08:38:15.241Z,48
2023-03-01T08:39:23.090Z,46
2023-03-01T08:40:32.841Z,45
2023-03-01T08:41:41.062Z,44
2023-03-01T08:42:49.512Z,44
2023-03-01T08:43:58.341Z,43
2023-03-01T08:45:05.476Z,39
2023-03-01T08:46:13.537Z,37
2023-03-01T08:47:23.800Z,37
2023-03-01T08:48:31.872Z,34
2023-03-01T08:49:39.735Z,37
2023-03-01T08:50:48.144Z,38
2023-03-01T08:51:58.147Z,44
2023-03-01T08:53:05.577Z,45
2023-03-01T08:54:12.687Z,45
2023-03-01T08:55:19.852Z,42
2023-03-01T08:56:32.014Z,37
2023-03-01T08:57:41.401Z,40
2023-03-01T08:58:49.152Z,37
2023-03-01T08:59:56.197Z,35
2023-03-01T09:01:06.057Z,37
2023-03-01T09:02:13.475Z,37
2023-03-01T09:03:21.138Z,36
2023-03-01T09:04:33.417Z,35
2023-03-01T09:05:41.786Z,34
2023-03-01T09:06:51.714Z,29
2023-03-01T09:08:01.216Z,29
2023-03-01T09:09:09.173Z,30
2023-03-01T09:10:22.701Z,31
2023-03-01T09:11:29.686Z,34
2023-03-01T09:12:38.994Z,36
2023-03-01T09:13:45.996Z,36
2023-03-01T09:14:59.666Z,36
2023-03-01T09:16:08.085Z,35
2023-03-01T09:17:15.293Z,36
2023-03-01T09:18:25.404Z,35
2023-03-01T09:19:36.453Z,34
2023-03-01T09:20:43.438Z,34
2023-03-01T09:21:59.603Z,35
2023-03-01T09:23:06.625Z,34
2023-03-01T09:24:27.333Z,36
2023-03-01T09:25:45.377Z,35
2023-03-01T09:26:53.925Z,35
2023-03-01T09:28:04.097Z,34
2023-03-01T09:29:12.008Z,35
2023-03-01T09:30:19.721Z,36
2023-03-01T09:31:30.282Z,35
2023-03-01T09:32:38.747Z,35
2023-03-01T09:33:55.880Z,34
2023-03-01T09:35:05.986Z,36
2023-03-01T09:36:14.434Z,32
2023-03-01T09:37:21.458Z,32
2023-03-01T09:38:32.974Z,28
2023-03-01T09:39:42.075Z,26
2023-03-01T09:41:00.122Z,26
2023-03-01T09:42:10.682Z,26
2023-03-01T09:43:21.853Z,26
2023-03-01T09:44:41.699Z,24
2023-03-01T09:45:57.365Z,24
2023-03-01T09:47:07.778Z,22
2023-03-01T09:48:20.197Z,19
2023-03-01T09:49:28.539Z,20
2023-03-01T09:50:36.361Z,18
2023-03-01T09:51:44.219Z,20
2023-03-01T09:53:01.769Z,18
2023-03-01T09:54:11.726Z,18
2023-03-01T09:55:18.914Z,19
2023-03-01T09:56:34.503Z,19
2023-03-01T09:57:45.103Z,20
2023-03-01T09:58:52.337Z,20
2023-03-01T10:00:10.798Z,21
2023-03-01T10:01:26.515Z,21
2023-03-01T10:02:41.321Z,24
2023-03-01T10:03:48.418Z,22
2023-03-01T10:05:10.033Z,23
2023-03-01T10:06:33.817Z,24
2023-03-01T10:07:30.465Z,22
2023-03-01T10:08:49.075Z,20
2023-03-01T10:10:03.743Z,21
2023-03-01T10:11:11.116Z,20
2023-03-01T10:12:24.397Z,22
2023-03-01T10:13:34.202Z,23
2023-03-01T10:14:46.337Z,25
2023-03-01T10:16:01.123Z,27
2023-03-01T10:17:20.412Z,26
2023-03-01T10:18:32.579Z,26
2023-03-01T10:19:39.952Z,27
2023-03-01T10:20:47.295Z,29
2023-03-01T10:22:02.279Z,29
2023-03-01T10:23:18.712Z,28
2023-03-01T10:24:28.790Z,33
2023-03-01T10:25:36.019Z,34
2023-03-01T10:26:54.903Z,37
2023-03-01T10:28:04.966Z,36
2023-03-01T10:29:22.226Z,37
2023-03-01T10:30:35.225Z,37
2023-03-01T10:31:42.314Z,35
2023-03-01T10:32:49.466Z,36
2023-03-01T10:33:56.652Z,36
2023-03-01T10:35:07.041Z,36
2023-03-01T10:36:19.203Z,34
2023-03-01T10:37:26.943Z,36
2023-03-01T10:38:34.004Z,34
2023-03-01T10:39:54.143Z,33
2023-03-01T10:41:04.641Z,32
2023-03-01T10:42:12.050Z,32
2023-03-01T10:43:24.113Z,31
2023-03-01T10:44:31.207Z,32
2023-03-01T10:45:38.273Z,34
2023-03-01T10:46:47.523Z,35
2023-03-01T10:47:58.004Z,37
2023-03-01T10:49:11.682Z,36
2023-03-01T10:50:24.584Z,33
2023-03-01T10:51:32.556Z,34
2023-03-01T10:52:39.382Z,35
2023-03-01T10:53:46.391Z,33
2023-03-01T10:54:53.450Z,32
2023-03-01T10:56:00.501Z,32
2023-03-01T10:57:16.967Z,29
2023-03-01T10:58:29.186Z,28
2023-03-01T10:59:39.096Z,30
2023-03-01T11:00:48.858Z,30
2023-03-01T11:02:03.531Z,28
2023-03-01T11:03:15.564Z,27
2023-03-01T11:04:29.854Z,29
2023-03-01T11:05:36.824Z,27
2023-03-01T11:06:54.151Z,27
2023-03-01T11:08:05.434Z,28
2023-03-01T11:09:13.712Z,27
2023-03-01T11:10:26.350Z,28
2023-03-01T11:11:33.660Z,29
2023-03-01T11:12:40.686Z,28
2023-03-01T11:13:48.135Z,27
2023-03-01T11:15:03.384Z,28
2023-03-01T11:16:11.045Z,27
2023-03-01T11:17:17.971Z,28
2023-03-01T11:18:46.812Z,28
2023-03-01T11:19:45.170Z,28
2023-03-01T11:20:52.255Z,28
2023-03-01T11:22:00.028Z,26
2023-03-01T11:23:09.806Z,27
2023-03-01T11:24:19.008Z,27
2023-03-01T11:25:28.812Z,26
2023-03-01T11:26:38.700Z,25
2023-03-01T11:27:45.893Z,26
2023-03-01T11:28:53.675Z,27
2023-03-01T11:30:00.698Z,26
2023-03-01T11:31:13.461Z,26
2023-03-01T11:32:20.928Z,26
2023-03-01T11:33:27.972Z,26
2023-03-01T11:34:37.784Z,24
2023-03-01T11:35:47.918Z,25
2023-03-01T11:36:58.184Z,26
2023-03-01T11:38:05.479Z,25
2023-03-01T11:39:22.649Z,25
2023-03-01T11:40:34.688Z,24
2023-03-01T11:41:44.800Z,24
2023-03-01T11:42:51.830Z,24
2023-03-01T11:44:04.164Z,24
2023-03-01T11:45:21.585Z,25
2023-03-01T11:46:29.196Z,24
2023-03-01T11:47:36.382Z,23
2023-03-01T11:48:51.971Z,23
2023-03-01T11:50:04.177Z,22
2023-03-01T11:51:12.287Z,22
2023-03-01T11:52:24.327Z,21
2023-03-01T11:53:44.418Z,22
2023-03-01T11:55:01.616Z,22
2023-03-01T11:56:14.660Z,21
2023-03-01T11:57:34.106Z,23
2023-03-01T11:58:42.485Z,24
2023-03-01T11:59:54.567Z,24
2023-03-01T12:01:04.070Z,24
2023-03-01T12:02:19.256Z,23
2023-03-01T12:03:34.129Z,22
2023-03-01T12:04:48.732Z,21
2023-03-01T12:06:01.142Z,21
2023-03-01T12:07:16.426Z,21
2023-03-01T12:08:31.098Z,22
2023-03-01T12:09:43.733Z,21
2023-03-01T12:10:55.978Z,21
2023-03-01T12:12:10.789Z,20
2023-03-01T12:13:20.700Z,21
2023-03-01T12:14:27.781Z,20
2023-03-01T12:15:46.648Z,20
2023-03-01T12:16:54.202Z,19
2023-03-01T12:18:09.316Z,21
2023-03-01T12:19:21.344Z,21
2023-03-01T12:20:41.249Z,20
2023-03-01T12:21:54.703Z,21
2023-03-01T12:23:20.284Z,22
2023-03-01T12:24:32.038Z,24
2023-03-01T12:25:39.309Z,24
2023-03-01T12:26:59.382Z,24
2023-03-01T12:28:11.469Z,26
2023-03-01T12:29:18.397Z,28
2023-03-01T12:30:28.154Z,28
2023-03-01T12:31:45.505Z,27
2023-03-01T12:33:02.162Z,27
2023-03-01T12:34:19.356Z,26
2023-03-01T12:35:35.157Z,27
2023-03-01T12:36:50.080Z,26
2023-03-01T12:38:05.101Z,29
2023-03-01T12:39:15.273Z,31
2023-03-01T12:40:32.731Z,32
2023-03-01T12:41:45.301Z,31
2023-03-01T12:43:00.328Z,34
2023-03-01T12:44:17.637Z,32
2023-03-01T12:45:32.546Z,33
2023-03-01T12:46:45.484Z,34
2023-03-01T12:47:55.685Z,33
2023-03-01T12:49:03.335Z,33
2023-03-01T12:50:19.840Z,33
2023-03-01T12:51:32.214Z,35
2023-03-01T12:52:39.192Z,33
2023-03-01T12:53:54.383Z,35
2023-03-01T12:55:01.548Z,36
2023-03-01T12:56:08.784Z,34
2023-03-01T12:57:18.324Z,34
2023-03-01T12:58:25.493Z,33
2023-03-01T12:59:40.760Z,31
2023-03-01T13:01:00.230Z,31
2023-03-01T13:02:15.598Z,30
2023-03-01T13:03:30.191Z,29
2023-03-01T13:04:42.363Z,30
2023-03-01T13:05:54.501Z,30
2023-03-01T13:07:11.627Z,28
2023-03-01T13:08:23.615Z,30
2023-03-01T13:09:38.912Z,30
2023-03-01T13:10:51.900Z,31
2023-03-01T13:12:15.839Z,31
2023-03-01T13:13:24.037Z,31
2023-03-01T13:14:31.770Z,30
2023-03-01T13:15:40.887Z,30
2023-03-01T13:16:48.836Z,32
2023-03-01T13:17:55.816Z,31
2023-03-01T13:19:08.672Z,30
2023-03-01T13:20:20.991Z,30
2023-03-01T13:21:31.974Z,30
2023-03-01T13:22:54.256Z,30
2023-03-01T13:23:54.225Z,29
2023-03-01T13:25:01.197Z,31
2023-03-01T13:26:18.272Z,30
2023-03-01T13:27:26.026Z,28
2023-03-01T13:28:33.166Z,28
2023-03-01T13:29:43.292Z,28
2023-03-01T13:30:50.422Z,28
2023-03-01T13:32:00.288Z,27
2023-03-01T13:33:08.675Z,27
2023-03-01T13:34:28.478Z,26
2023-03-01T13:35:43.456Z,26
2023-03-01T13:36:50.508Z,24
2023-03-01T13:37:57.381Z,25
2023-03-01T13:39:06.336Z,25
2023-03-01T13:40:18.323Z,25
2023-03-01T13:41:25.245Z,25
2023-03-01T13:42:42.378Z,26
2023-03-01T13:43:55.396Z,25
2023-03-01T13:45:03.152Z,26
2023-03-01T13:46:10.795Z,26
2023-03-01T13:47:23.584Z,27
2023-03-01T13:48:30.499Z,28
2023-03-01T13:49:46.147Z,27
2023-03-01T13:50:50.523Z,28
2023-03-01T13:52:02.746Z,29
2023-03-01T13:53:09.723Z,29
2023-03-01T13:54:18.784Z,28
2023-03-01T13:55:33.706Z,28
2023-03-01T13:56:40.871Z,28
2023-03-01T13:57:49.759Z,26
2023-03-01T13:59:02.161Z,28
2023-03-01T14:00:15.159Z,27
2023-03-01T14:01:36.173Z,27
2023-03-01T14:02:42.986Z,29
2023-03-01T14:03:50.114Z,29
2023-03-01T14:04:59.603Z,27
2023-03-01T14:06:14.431Z,27
2023-03-01T14:07:17.707Z,28
2023-03-01T14:08:25.234Z,29
2023-03-01T14:09:34.068Z,27
2023-03-01T14:10:43.767Z,28
2023-03-01T14:12:02.753Z,27
2023-03-01T14:13:17.769Z,28
2023-03-01T14:14:32.995Z,28
2023-03-01T14:15:48.604Z,29
2023-03-01T14:17:05.416Z,28
2023-03-01T14:18:22.623Z,28
2023-03-01T14:19:33.999Z,24
2023-03-01T14:20:39.715Z,24
2023-03-01T14:21:46.810Z,22
2023-03-01T14:22:54.551Z,23
2023-03-01T14:24:02.365Z,23
2023-03-01T14:25:11.331Z,23
2023-03-01T14:26:19.736Z,22
2023-03-01T14:27:26.931Z,22
2023-03-01T14:28:39.685Z,22
2023-03-01T14:29:47.577Z,22
2023-03-01T14:31:02.571Z,21
2023-03-01T14:32:14.528Z,21
2023-03-01T14:33:21.517Z,20
2023-03-01T14:34:28.346Z,19
2023-03-01T14:35:35.677Z,20
2023-03-01T14:36:42.520Z,20
2023-03-01T14:37:49.355Z,19
2023-03-01T14:38:56.290Z,19
2023-03-01T14:40:06.714Z,19
2023-03-01T14:41:13.725Z,19
2023-03-01T14:42:23.619Z,18
2023-03-01T14:43:30.477Z,18
2023-03-01T14:44:40.455Z,18
2023-03-01T14:45:47.539Z,18
2023-03-01T14:46:55.172Z,18
2023-03-01T14:48:02.062Z,17
2023-03-01T14:49:08.991Z,17
2023-03-01T14:50:20.888Z,17
2023-03-01T14:51:30.725Z,16
2023-03-01T14:52:42.858Z,16
2023-03-01T14:53:51.386Z,17
2023-03-01T14:54:56.763Z,16
2023-03-01T14:56:05.444Z,16
2023-03-01T14:57:17.846Z,18
2023-03-01T14:58:26.765Z,18
2023-03-01T14:59:34.008Z,17
2023-03-01T15:00:43.291Z,17
2023-03-01T15:01:51.405Z,18
2023-03-01T15:02:58.273Z,18
2023-03-01T15:04:05.197Z,19
2023-03-01T15:05:12.485Z,18
2023-03-01T15:06:21.396Z,17
2023-03-01T15:07:29.901Z,16
2023-03-01T15:08:47.464Z,17
2023-03-01T15:09:57.474Z,17
2023-03-01T15:11:04.516Z,17
2023-03-01T15:12:21.540Z,17
2023-03-01T15:13:31.275Z,17
2023-03-01T15:14:40.249Z,16
2023-03-01T15:15:47.409Z,17
2023-03-01T15:16:54.183Z,16
2023-03-01T15:18:02.599Z,16
2023-03-01T15:19:09.111Z,16
2023-03-01T15:20:18.099Z,15
2023-03-01T15:21:25.228Z,16
2023-03-01T15:22:35.505Z,16
2023-03-01T15:23:43.503Z,15
2023-03-01T15:24:53.426Z,16
2023-03-01T15:26:03.382Z,16
2023-03-01T15:27:10.496Z,17
2023-03-01T15:28:17.537Z,16
2023-03-01T15:29:33.318Z,17
2023-03-01T15:30:42.102Z,16
2023-03-01T15:31:49.103Z,17
2023-03-01T15:33:06.925Z,16
2023-03-01T15:34:25.724Z,17
2023-03-01T15:35:38.992Z,17
2023-03-01T15:36:46.893Z,18
2023-03-01T15:37:55.168Z,16
2023-03-01T15:39:02.522Z,16
2023-03-01T15:40:09.950Z,16
2023-03-01T15:41:29.141Z,17
2023-03-01T15:42:36.595Z,17
2023-03-01T15:43:46.371Z,17
2023-03-01T15:44:53.621Z,17
2023-03-01T15:46:14.271Z,18
2023-03-01T15:47:24.384Z,18
2023-03-01T15:48:34.823Z,19
2023-03-01T15:49:54.229Z,19
2023-03-01T15:50:52.538Z,20
2023-03-01T15:51:58.872Z,20
2023-03-01T15:53:07.344Z,20
2023-03-01T15:54:17.051Z,20
2023-03-01T15:55:23.928Z,19
2023-03-01T15:56:31.889Z,20
2023-03-01T15:57:38.626Z,20
2023-03-01T15:58:46.180Z,19
2023-03-01T15:59:55.162Z,21
2023-03-01T16:01:02.661Z,21
2023-03-01T16:02:09.350Z,21
2023-03-01T16:03:16.422Z,19
2023-03-01T16:04:27.841Z,20
2023-03-01T16:05:39.327Z,20
2023-03-01T16:06:46.410Z,21
2023-03-01T16:07:53.857Z,21
2023-03-01T16:09:00.807Z,21
2023-03-01T16:10:08.568Z,21
2023-03-01T16:11:16.131Z,21
2023-03-01T16:12:22.987Z,22
2023-03-01T16:13:32.684Z,25
2023-03-01T16:14:39.905Z,25
2023-03-01T16:15:46.785Z,25
2023-03-01T16:16:53.904Z,26
2023-03-01T16:18:03.786Z,28
2023-03-01T16:19:10.871Z,29
2023-03-01T16:20:26.153Z,30
2023-03-01T16:21:25.300Z,33
2023-03-01T16:22:32.816Z,33
2023-03-01T16:23:39.927Z,34
2023-03-01T16:24:46.931Z,36